Here is the Quick Look data you requested

The Data originates at the National Weather Service, and is made available here by the UAlbany Department of Atmospheric and Environmental Sciences

Surface Observations

KPIT 210351Z 26004KT 10SM FEW025 04/M02 A3010 RMK AO2 SLP207 T00391017=
KPIT 210429Z 24004KT 10SM OVC022 04/M01 A3010 RMK AO2 T00441011=
KPIT 210451Z 25005KT 10SM BKN024 04/M01 A3012 RMK AO2 SLP212 T00441006
 400780017=
KPIT 210551Z 22005KT 10SM OVC025 06/01 A3011 RMK AO2 SLP209 T00560006 10061
 20028 50005=
KPIT 210651Z 21006KT 10SM BKN024 OVC050 06/01 A3010 RMK AO2 SLP205 T00560006=
KPIT 210751Z 23006KT 10SM BKN013 OVC019 06/02 A3011 RMK AO2 SLP209 T00610017=
KPIT 210851Z 22005KT 10SM OVC010 06/03 A3011 RMK AO2 SLP209 T00560028 53001=
KPIT 210903Z 22007KT 10SM -DZ OVC009 06/03 A3011 RMK AO2 DZB03 P0000 T00560028=
KPIT 210951Z 21005KT 2SM -DZ BR OVC005 05/04 A3011 RMK AO2 DZB03 SLP211 P0000
 T00500044=
KPIT 211005Z 19003KT 1SM R28R/P6000FT -DZ BR OVC004 04/04 A3011 RMK AO2 P0000
 T00440044=
KPIT 211051Z 19003KT 1/2SM R28R/P6000FT DZ FG OVC003 04/04 A3011 RMK AO2 SLP212
 P0000 T00440044=
KPIT 211151Z 19003KT 1/2SM R28R/4000VP6000FT -DZ BR OVC003 04/04 A3011 RMK AO2
 SFC VIS 1 SLP213 P0000 60000 T00440044 10061 20044 51001=
KPIT 211251Z 18003KT 1/2SM R28R/4000VP6000FT FG OVC002 04/04 A3012 RMK AO2
 DZE27 SLP214 P0000 T00440044=
KPIT 211351Z 20004KT 1SM R28R/2000V6000FT BR BKN003 OVC007 05/05 A3013 RMK AO2
 DZB15E31 SLP217 P0000 T00500050=
KPIT 211401Z 21004KT 2SM BR BKN005 OVC014 06/05 A3013 RMK AO2 T00560050=
KPIT 211415Z 00000KT 3SM BR SCT008 OVC013 06/06 A3013 RMK AO2 T00560056=
KPIT 211451Z 21005KT 5SM BR FEW008 OVC013 06/06 A3013 RMK AO2 SLP220 60000
 T00610061 53006=
KPIT 211521Z 23004KT 8SM SCT015 BKN021 OVC060 07/06 A3014 RMK AO2 T00670061=
KPIT 211551Z 22005KT 8SM FEW008 BKN013 OVC022 07/06 A3014 RMK AO2 SLP220
 T00720061=
KPIT 211625Z 20004KT 10SM FEW009 SCT017 OVC026 07/06 A3013 RMK AO2 T00720061=
KPIT 211651Z 19004KT 10SM FEW015 OVC025 07/06 A3012 RMK AO2 SLP214 T00720061=
KPIT 211751Z 19006KT 10SM BKN024 OVC065 09/06 A3008 RMK AO2 SLP198 60000
 T00890056 10089 20044 58018=
KPIT 211851Z 20010KT 10SM BKN025 OVC070 10/06 A3006 RMK AO2 SLP190 BINOVC
 T01000056=
KPIT 211951Z 23007KT 10SM OVC020 10/06 A3006 RMK AO2 SLP189 T01000056=
KPIT 212051Z 22005KT 10SM OVC018 10/06 A3006 RMK AO2 SLP192 T01000056 55005=
KPIT 212151Z 21008KT 10SM OVC017 10/06 A3007 RMK AO2 SLP195 T01000056=
KPIT 212251Z 19003KT 10SM OVC019 09/06 A3007 RMK AO2 SLP194 T00940056=
KPIT 212351Z 00000KT 6SM -DZ BR OVC020 08/06 A3008 RMK AO2 RAB18E51DZB51 SLP200
 P0001 60001 T00780056 10106 20078 53006=
KPIT 220051Z 00000KT 4SM -DZ BR BKN016 OVC022 07/07 A3008 RMK AO2
 DZE00B49RAB28E49 SLP201 P0001 T00720067=
KPIT 220151Z 18003KT 6SM BR MIFG OVC021 07/07 A3008 RMK AO2 DZE19 SLP199 P0000
 T00670067=
KPIT 220251Z 17003KT 6SM BR OVC017 07/07 A3008 RMK AO2 SLP200 60001 T00670067
 53001=
KPIT 220323Z 18003KT 7SM OVC013 07/07 A3008 RMK AO2 T00720072=
KPIT 220351Z 00000KT 10SM SCT013 OVC023 08/07 A3007 RMK AO2 SLP196 T00780072=
KPIT 220451Z 24003KT 10SM OVC024 08/08 A3007 RMK AO2 SLP196 T00830078 401060044=
KPIT 220551Z 00000KT 10SM BKN023 BKN041 OVC049 08/07 A3006 RMK AO2 SLP190 60001
 T00780072 10089 20067 58008=
KPIT 220559Z 12003KT 8SM SCT023 BKN050 OVC080 08/07 A3006 RMK AO2 T00780072=
KPIT 220619Z 00000KT 8SM BKN019 BKN049 OVC055 07/07 A3005 RMK AO2 T00720072=
KPIT 220651Z 15003KT 8SM OVC026 07/07 A3005 RMK AO2 SLP186 T00670067=
KPIT 220751Z 00000KT 10SM BKN026 BKN031 OVC090 07/07 A3003 RMK AO2 SLP181
 T00720072=
KPIT 220851Z 00000KT 10SM BKN026 OVC095 07/07 A3002 RMK AO2 SLP178 T00670067
 56012=
KPIT 220912Z 00000KT 10SM SCT024 BKN033 OVC095 07/07 A3002 RMK AO2 T00670067=
KPIT 220951Z 14003KT 10SM -RA FEW060 OVC075 07/07 A3002 RMK AO2 RAB23 SLP177
 P0000 T00720067=
KPIT 221051Z 00000KT 9SM -DZ BKN040 BKN048 OVC060 07/07 A3003 RMK AO2
 RAE34DZB49 SLP179 P0001 T00720072=
KPIT 221151Z 15004KT 6SM -RA BR FEW038 BKN055 OVC070 08/07 A3003 RMK AO2
 DZE1056RAB1056 SLP180 P0003 60004 70006 T00780072 10078 20067 53001=
KPIT 221251Z 12004KT 7SM SCT055 BKN075 OVC110 07/07 A3001 RMK AO2 RAE37 SLP175
 P0001 T00720072=
KPIT 221351Z 16006KT 10SM SCT060 OVC110 08/08 A3001 RMK AO2 SLP173 T00830078=
KPIT 221451Z 14007KT 10SM FEW060 BKN110 OVC220 10/08 A3000 RMK AO2 SLP168 60001
 T01000083 56011=
KPIT 221551Z 15005KT 10SM FEW060 SCT110 OVC220 12/09 A2999 RMK AO2 SLP165
 T01220094=